Time,TemperatureF,DewpointF,PressureIn,WindDirection,WindDirectionDegrees,WindSpeedMPH,WindSpeedGustMPH,Humidity,HourlyPrecipIn,Conditions,Clouds,dailyrainin,SolarRadiationWatts/m^2,SoftwareType,DateUTC
2013-01-22 00:00:00,21.4,18.1,29.84,ENE,67,1.0,8.0,87,0.00,,,0.00,0.0,meteohub,2013-01-22 05:00:00,
2013-01-22 00:01:00,21.4,18.1,29.84,ENE,67,1.0,8.0,87,0.00,,,0.00,0.0,meteohub,2013-01-22 05:01:00,
2013-01-22 00:02:00,21.4,18.1,29.84,ENE,67,0.0,8.0,87,0.00,,,0.00,0.0,meteohub,2013-01-22 05:02:00,
2013-01-22 00:04:00,21.6,18.5,29.84,ENE,67,1.0,8.0,88,0.00,,,0.00,0.0,meteohub,2013-01-22 05:04:00,
2013-01-22 00:09:00,21.4,18.3,29.83,NE,38,0.0,8.0,88,0.00,,,0.00,0.0,meteohub,2013-01-22 05:09:00,
2013-01-22 00:14:00,21.2,18.5,29.83,NE,38,0.0,8.0,89,0.00,,,0.00,0.0,meteohub,2013-01-22 05:14:00,
2013-01-22 00:19:00,20.8,18.1,29.83,NE,38,0.0,4.0,89,0.00,,,0.00,0.0,meteohub,2013-01-22 05:19:00,
2013-01-22 00:24:00,20.7,18.0,29.83,NE,38,0.0,4.0,89,0.00,,,0.00,0.0,meteohub,2013-01-22 05:24:00,
2013-01-22 00:30:00,20.5,17.8,29.83,NE,49,0.0,1.0,89,0.00,,,0.00,0.0,meteohub,2013-01-22 05:30:00,
2013-01-22 00:35:00,20.1,17.1,29.83,NE,49,0.0,2.0,88,0.00,,,0.00,0.0,meteohub,2013-01-22 05:35:00,
2013-01-22 00:40:00,20.1,17.4,29.83,NE,53,0.0,2.0,89,0.00,,,0.00,0.0,meteohub,2013-01-22 05:40:00,
2013-01-22 00:45:00,19.9,17.2,29.83,ENE,74,1.0,3.0,89,0.00,,,0.00,0.0,meteohub,2013-01-22 05:45:00,
2013-01-22 00:50:00,19.8,16.7,29.83,North,5,0.0,3.0,88,0.00,,,0.00,0.0,meteohub,2013-01-22 05:50:00,
2013-01-22 00:55:00,19.8,16.3,29.83,ENE,63,0.0,3.0,86,0.00,,,0.00,0.0,meteohub,2013-01-22 05:55:00,
2013-01-22 01:00:00,19.8,16.5,29.83,ENE,63,0.0,2.0,87,0.00,,,0.00,0.0,meteohub,2013-01-22 06:00:00,
2013-01-22 01:05:00,19.8,16.3,29.83,ENE,63,2.0,2.0,86,0.00,,,0.00,0.0,meteohub,2013-01-22 06:05:00,
2013-01-22 01:10:00,19.8,16.5,29.84,ENE,62,0.0,2.0,87,0.00,,,0.00,0.0,meteohub,2013-01-22 06:10:00,
2013-01-22 01:15:00,19.8,16.3,29.84,ENE,62,0.0,2.0,86,0.00,,,0.00,0.0,meteohub,2013-01-22 06:15:00,
2013-01-22 01:21:00,19.8,16.5,29.84,ENE,62,0.0,2.0,87,0.00,,,0.00,0.0,meteohub,2013-01-22 06:21:00,
2013-01-22 01:26:00,19.8,16.5,29.84,East,92,0.0,1.0,87,0.00,,,0.00,0.0,meteohub,2013-01-22 06:26:00,
2013-01-22 01:31:00,19.8,16.5,29.84,East,92,0.0,2.0,87,0.00,,,0.00,0.0,meteohub,2013-01-22 06:31:00,
2013-01-22 01:36:00,19.8,16.5,29.84,East,92,0.0,2.0,87,0.00,,,0.00,0.0,meteohub,2013-01-22 06:36:00,
2013-01-22 01:41:00,19.8,16.3,29.84,East,99,0.0,2.0,86,0.00,,,0.00,0.0,meteohub,2013-01-22 06:41:00,
2013-01-22 01:46:00,19.8,16.3,29.84,East,98,0.0,1.0,86,0.00,,,0.00,0.0,meteohub,2013-01-22 06:46:00,
2013-01-22 01:51:00,19.8,16.0,29.84,SW,236,2.0,2.0,85,0.00,,,0.00,0.0,meteohub,2013-01-22 06:51:00,
2013-01-22 01:56:00,19.8,16.0,29.85,WSW,237,0.0,2.0,85,0.00,,,0.00,0.0,meteohub,2013-01-22 06:56:00,
2013-01-22 02:01:00,19.8,16.0,29.85,WSW,237,0.0,2.0,85,0.00,,,0.00,0.0,meteohub,2013-01-22 07:01:00,
2013-01-22 02:07:00,19.6,15.6,29.85,West,273,0.0,2.0,84,0.00,,,0.00,0.0,meteohub,2013-01-22 07:07:00,
2013-01-22 02:12:00,19.2,14.9,29.85,East,80,0.0,2.0,83,0.00,,,0.00,0.0,meteohub,2013-01-22 07:12:00,
2013-01-22 02:17:00,19.0,14.7,29.86,East,80,0.0,3.0,83,0.00,,,0.00,0.0,meteohub,2013-01-22 07:17:00,
2013-01-22 02:22:00,18.9,15.1,29.86,East,80,0.0,3.0,85,0.00,,,0.00,0.0,meteohub,2013-01-22 07:22:00,
2013-01-22 02:27:00,18.9,15.1,29.86,East,80,0.0,2.0,85,0.00,,,0.00,0.0,meteohub,2013-01-22 07:27:00,
2013-01-22 02:32:00,18.7,15.3,29.86,East,80,0.0,2.0,86,0.00,,,0.00,0.0,meteohub,2013-01-22 07:32:00,
2013-01-22 02:37:00,18.9,13.1,29.87,WSW,252,4.0,0.0,78,0.00,,,0.00,0.0,meteohub,2013-01-22 07:37:00,
2013-01-22 02:43:00,19.6,14.4,29.87,SW,234,0.0,7.0,80,0.00,,,0.00,0.0,meteohub,2013-01-22 07:43:00,
2013-01-22 02:48:00,19.9,12.4,29.87,SW,229,1.0,7.0,72,0.00,,,0.00,0.0,meteohub,2013-01-22 07:48:00,
2013-01-22 02:53:00,20.5,12.0,29.87,WSW,252,1.0,8.0,69,0.00,,,0.00,0.0,meteohub,2013-01-22 07:53:00,
2013-01-22 02:58:00,20.7,11.8,29.87,SW,218,1.0,8.0,68,0.00,,,0.00,0.0,meteohub,2013-01-22 07:58:00,
2013-01-22 03:03:00,20.7,11.5,29.87,West,281,1.0,8.0,67,0.00,,,0.00,0.0,meteohub,2013-01-22 08:03:00,
2013-01-22 03:08:00,20.5,11.3,29.87,SSE,158,3.0,8.0,67,0.00,,,0.00,0.0,meteohub,2013-01-22 08:08:00,
2013-01-22 03:13:00,20.3,11.8,29.87,West,267,0.0,8.0,69,0.00,,,0.00,0.0,meteohub,2013-01-22 08:13:00,
2013-01-22 03:18:00,20.1,11.3,29.88,SW,214,0.0,8.0,68,0.00,,,0.00,0.0,meteohub,2013-01-22 08:18:00,
2013-01-22 03:24:00,19.9,11.1,29.88,WSW,244,2.0,8.0,68,0.00,,,0.00,0.0,meteohub,2013-01-22 08:24:00,
2013-01-22 03:29:00,19.9,9.7,29.88,SSW,213,7.0,7.0,64,0.00,,,0.00,0.0,meteohub,2013-01-22 08:29:00,
2013-01-22 03:34:00,19.8,9.9,29.88,NNW,335,2.0,9.0,65,0.00,,,0.00,0.0,meteohub,2013-01-22 08:34:00,
2013-01-22 03:39:00,19.6,9.0,29.88,SSW,205,2.0,9.0,63,0.00,,,0.00,0.0,meteohub,2013-01-22 08:39:00,
2013-01-22 03:44:00,19.2,8.8,29.88,SSW,211,2.0,9.0,63,0.00,,,0.00,0.0,meteohub,2013-01-22 08:44:00,
2013-01-22 03:49:00,19.0,7.9,29.88,South,177,3.0,9.0,61,0.00,,,0.00,0.0,meteohub,2013-01-22 08:49:00,
2013-01-22 03:54:00,19.0,8.6,29.89,NNE,19,0.0,15.0,63,0.00,,,0.00,0.0,meteohub,2013-01-22 08:54:00,
2013-01-22 03:59:00,18.9,8.1,29.89,WSW,252,1.0,15.0,62,0.00,,,0.00,0.0,meteohub,2013-01-22 08:59:00,
2013-01-22 04:04:00,18.9,7.7,29.89,ESE,119,4.0,15.0,61,0.00,,,0.00,0.0,meteohub,2013-01-22 09:04:00,
2013-01-22 04:09:00,18.7,7.5,29.89,WSW,257,1.0,9.0,61,0.00,,,0.00,0.0,meteohub,2013-01-22 09:09:00,
2013-01-22 04:14:00,18.7,7.9,29.89,SW,225,1.0,10.0,62,0.00,,,0.00,0.0,meteohub,2013-01-22 09:14:00,
2013-01-22 04:20:00,18.5,8.1,29.89,WSW,242,6.0,10.0,63,0.00,,,0.00,0.0,meteohub,2013-01-22 09:20:00,
2013-01-22 04:25:00,18.3,7.5,29.90,West,270,2.0,7.0,62,0.00,,,0.00,0.0,meteohub,2013-01-22 09:25:00,
2013-01-22 04:30:00,18.1,7.3,29.90,SW,235,1.0,8.0,62,0.00,,,0.00,0.0,meteohub,2013-01-22 09:30:00,
2013-01-22 04:35:00,18.0,6.8,29.90,WSW,253,1.0,8.0,61,0.00,,,0.00,0.0,meteohub,2013-01-22 09:35:00,
2013-01-22 04:40:00,18.0,7.2,29.90,WSW,250,3.0,6.0,62,0.00,,,0.00,0.0,meteohub,2013-01-22 09:40:00,
2013-01-22 04:45:00,17.8,7.3,29.90,WSW,254,1.0,6.0,63,0.00,,,0.00,0.0,meteohub,2013-01-22 09:45:00,
2013-01-22 04:50:00,17.6,6.4,29.91,West,265,5.0,6.0,61,0.00,,,0.00,0.0,meteohub,2013-01-22 09:50:00,
2013-01-22 04:55:00,17.6,6.4,29.90,West,275,4.0,10.0,61,0.00,,,0.00,0.0,meteohub,2013-01-22 09:55:00,
2013-01-22 05:01:00,17.4,6.3,29.90,SSE,150,4.0,13.0,61,0.00,,,0.00,0.0,meteohub,2013-01-22 10:01:00,
2013-01-22 05:06:00,17.2,6.8,29.91,SSW,197,6.0,13.0,63,0.00,,,0.00,0.0,meteohub,2013-01-22 10:06:00,
2013-01-22 05:11:00,17.2,6.8,29.90,WNW,284,4.0,14.0,63,0.00,,,0.00,0.0,meteohub,2013-01-22 10:11:00,
2013-01-22 05:16:00,17.1,6.3,29.91,SW,235,1.0,14.0,62,0.00,,,0.00,0.0,meteohub,2013-01-22 10:16:00,
2013-01-22 05:21:00,17.1,6.3,29.91,West,273,1.0,14.0,62,0.00,,,0.00,0.0,meteohub,2013-01-22 10:21:00,
2013-01-22 05:26:00,17.1,6.3,29.91,SW,221,1.0,10.0,62,0.00,,,0.00,0.0,meteohub,2013-01-22 10:26:00,
2013-01-22 05:31:00,17.1,5.9,29.91,West,268,1.0,10.0,61,0.00,,,0.00,0.0,meteohub,2013-01-22 10:31:00,
2013-01-22 05:36:00,17.1,6.3,29.91,West,266,2.0,16.0,62,0.00,,,0.00,0.0,meteohub,2013-01-22 10:36:00,
2013-01-22 05:41:00,16.9,5.7,29.92,SSW,198,1.0,16.0,61,0.00,,,0.00,0.0,meteohub,2013-01-22 10:41:00,
2013-01-22 05:47:00,16.9,5.4,29.92,West,267,2.0,10.0,60,0.00,,,0.00,0.0,meteohub,2013-01-22 10:47:00,
2013-01-22 05:52:00,16.9,5.0,29.93,WNW,302,0.0,8.0,59,0.00,,,0.00,0.0,meteohub,2013-01-22 10:52:00,
2013-01-22 05:57:00,16.7,5.2,29.92,WNW,288,2.0,14.0,60,0.00,,,0.00,0.0,meteohub,2013-01-22 10:57:00,
2013-01-22 06:02:00,16.7,4.5,29.93,West,260,2.0,14.0,58,0.00,,,0.00,0.0,meteohub,2013-01-22 11:02:00,
2013-01-22 06:07:00,16.7,4.1,29.93,West,263,3.0,11.0,57,0.00,,,0.00,0.0,meteohub,2013-01-22 11:07:00,
2013-01-22 06:12:00,16.7,3.7,29.93,SE,132,4.0,10.0,56,0.00,,,0.00,0.0,meteohub,2013-01-22 11:12:00,
2013-01-22 06:17:00,16.7,3.7,29.93,WSW,250,8.0,10.0,56,0.00,,,0.00,0.0,meteohub,2013-01-22 11:17:00,
2013-01-22 06:22:00,16.5,3.6,29.93,NE,44,3.0,10.0,56,0.00,,,0.00,0.0,meteohub,2013-01-22 11:22:00,
2013-01-22 06:27:00,16.5,3.9,29.94,WSW,258,3.0,12.0,57,0.00,,,0.00,0.0,meteohub,2013-01-22 11:27:00,
2013-01-22 06:32:00,16.5,3.6,29.94,West,263,6.0,12.0,56,0.00,,,0.00,0.0,meteohub,2013-01-22 11:32:00,
2013-01-22 06:37:00,16.5,2.3,29.94,WSW,257,3.0,12.0,53,0.00,,,0.00,0.0,meteohub,2013-01-22 11:37:00,
2013-01-22 06:43:00,16.5,2.8,29.94,WNW,290,3.0,9.0,54,0.00,,,0.00,0.0,meteohub,2013-01-22 11:43:00,
2013-01-22 06:48:00,16.3,2.7,29.94,West,275,3.0,9.0,54,0.00,,,0.00,0.0,meteohub,2013-01-22 11:48:00,
2013-01-22 06:53:00,16.3,3.0,29.94,SW,220,4.0,12.0,55,0.00,,,0.00,0.0,meteohub,2013-01-22 11:53:00,
2013-01-22 06:58:00,16.3,1.8,29.95,WNW,292,2.0,12.0,52,0.00,,,0.00,0.0,meteohub,2013-01-22 11:58:00,
2013-01-22 07:03:00,16.2,0.9,29.95,West,260,0.0,17.0,50,0.00,,,0.00,0.0,meteohub,2013-01-22 12:03:00,
2013-01-22 07:09:00,16.2,0.0,29.94,West,268,5.0,17.0,48,0.00,,,0.00,0.0,meteohub,2013-01-22 12:09:00,
2013-01-22 07:14:00,16.2,0.0,29.94,SW,231,5.0,17.0,48,0.00,,,0.00,0.0,meteohub,2013-01-22 12:14:00,
2013-01-22 07:19:00,16.2,0.0,29.94,SE,146,3.0,17.0,48,0.00,,,0.00,7.0,meteohub,2013-01-22 12:19:00,
2013-01-22 07:24:00,16.0,0.1,29.94,WNW,290,4.0,17.0,49,0.00,,,0.00,7.0,meteohub,2013-01-22 12:24:00,
2013-01-22 07:29:00,16.0,0.1,29.96,SW,233,6.0,16.0,49,0.00,,,0.00,7.0,meteohub,2013-01-22 12:29:00,
2013-01-22 07:34:00,15.8,0.9,29.96,West,274,1.0,16.0,51,0.00,,,0.00,7.0,meteohub,2013-01-22 12:34:00,
2013-01-22 07:39:00,15.8,0.9,29.97,West,261,2.0,10.0,51,0.00,,,0.00,9.0,meteohub,2013-01-22 12:39:00,
2013-01-22 07:45:00,15.6,0.3,29.97,SW,232,0.0,10.0,50,0.00,,,0.00,12.0,meteohub,2013-01-22 12:45:00,
2013-01-22 07:50:00,15.6,0.7,29.97,WNW,285,0.0,9.0,51,0.00,,,0.00,12.0,meteohub,2013-01-22 12:50:00,
2013-01-22 07:55:00,15.4,0.1,29.97,West,277,1.0,6.0,50,0.00,,,0.00,21.0,meteohub,2013-01-22 12:55:00,
2013-01-22 08:01:00,15.4,1.4,29.98,West,275,1.0,7.0,53,0.00,,,0.00,26.0,meteohub,2013-01-22 13:01:00,
2013-01-22 08:06:00,15.4,-0.4,29.98,NW,319,1.0,7.0,49,0.00,,,0.00,32.0,meteohub,2013-01-22 13:06:00,
2013-01-22 08:11:00,15.6,-0.6,29.98,NE,34,1.0,7.0,48,0.00,,,0.00,33.0,meteohub,2013-01-22 13:11:00,
2013-01-22 08:17:00,15.6,0.7,29.98,WSW,256,2.0,4.0,51,0.00,,,0.00,30.0,meteohub,2013-01-22 13:17:00,
2013-01-22 08:22:00,15.8,0.5,29.99,SSE,162,1.0,5.0,50,0.00,,,0.00,37.0,meteohub,2013-01-22 13:22:00,
2013-01-22 08:27:00,15.6,-0.6,29.99,West,265,0.0,5.0,48,0.00,,,0.00,42.0,meteohub,2013-01-22 13:27:00,
2013-01-22 08:32:00,15.6,-0.6,29.99,WSW,254,1.0,6.0,48,0.00,,,0.00,46.0,meteohub,2013-01-22 13:32:00,
2013-01-22 08:37:00,15.8,-0.9,29.99,NNE,29,2.0,8.0,47,0.00,,,0.00,58.0,meteohub,2013-01-22 13:37:00,
2013-01-22 08:42:00,16.0,0.1,29.99,NE,49,2.0,8.0,49,0.00,,,0.00,49.0,meteohub,2013-01-22 13:42:00,
2013-01-22 08:48:00,16.2,0.0,29.99,WSW,250,2.0,8.0,48,0.00,,,0.00,47.0,meteohub,2013-01-22 13:48:00,
2013-01-22 08:53:00,16.2,-0.9,29.99,WNW,292,3.0,11.0,46,0.00,,,0.00,60.0,meteohub,2013-01-22 13:53:00,
2013-01-22 08:58:00,16.2,-1.8,29.98,NW,318,6.0,11.0,44,0.00,,,0.00,62.0,meteohub,2013-01-22 13:58:00,
2013-01-22 09:03:00,16.3,-0.8,29.98,WNW,291,5.0,12.0,46,0.00,,,0.00,56.0,meteohub,2013-01-22 14:03:00,
2013-01-22 09:09:00,16.3,-2.2,29.98,WSW,257,1.0,12.0,43,0.00,,,0.00,44.0,meteohub,2013-01-22 14:09:00,
2013-01-22 09:14:00,16.2,-1.8,29.98,West,260,4.0,17.0,44,0.00,,,0.00,53.0,meteohub,2013-01-22 14:14:00,
2013-01-22 09:19:00,16.5,-2.0,29.97,West,270,6.0,17.0,43,0.00,,,0.00,51.0,meteohub,2013-01-22 14:19:00,
2013-01-22 09:24:00,16.7,-2.4,29.98,WSW,256,2.0,20.0,42,0.00,,,0.00,37.0,meteohub,2013-01-22 14:24:00,
2013-01-22 09:29:00,16.9,-2.2,29.98,West,260,9.0,20.0,42,0.00,,,0.00,37.0,meteohub,2013-01-22 14:29:00,
2013-01-22 09:35:00,17.1,-2.6,29.98,WSW,247,7.0,20.0,41,0.00,,,0.00,37.0,meteohub,2013-01-22 14:35:00,
2013-01-22 09:40:00,17.1,-2.0,29.97,SW,221,8.0,17.0,42,0.00,,,0.00,37.0,meteohub,2013-01-22 14:40:00,
2013-01-22 09:45:00,17.1,-2.6,29.98,West,263,2.0,22.0,41,0.00,,,0.00,37.0,meteohub,2013-01-22 14:45:00,
2013-01-22 09:50:00,17.2,-2.9,29.99,South,190,8.0,22.0,40,0.00,,,0.00,37.0,meteohub,2013-01-22 14:50:00,
2013-01-22 09:55:00,17.2,-2.9,29.99,SW,227,9.0,22.0,40,0.00,,,0.00,37.0,meteohub,2013-01-22 14:55:00,
2013-01-22 10:01:00,17.1,-3.6,29.99,WNW,293,4.0,17.0,39,0.00,,,0.00,39.0,meteohub,2013-01-22 15:01:00,
2013-01-22 10:06:00,17.2,-3.5,29.99,WSW,250,11.0,17.0,39,0.00,,,0.00,39.0,meteohub,2013-01-22 15:06:00,
2013-01-22 10:11:00,17.2,-3.5,29.99,SSE,150,3.0,16.0,39,0.00,,,0.00,46.0,meteohub,2013-01-22 15:11:00,
2013-01-22 10:16:00,17.4,-3.3,29.99,NW,308,2.0,16.0,39,0.00,,,0.00,132.0,meteohub,2013-01-22 15:16:00,
2013-01-22 10:21:00,17.6,-3.6,29.99,West,263,9.0,16.0,38,0.00,,,0.00,278.0,meteohub,2013-01-22 15:21:00,
2013-01-22 10:27:00,17.4,-3.8,29.99,West,263,3.0,16.0,38,0.00,,,0.00,214.0,meteohub,2013-01-22 15:27:00,
2013-01-22 10:32:00,17.4,-4.4,29.99,WSW,243,8.0,16.0,37,0.00,,,0.00,267.0,meteohub,2013-01-22 15:32:00,
2013-01-22 10:37:00,17.6,-3.6,29.99,WSW,246,10.0,18.0,38,0.00,,,0.00,211.0,meteohub,2013-01-22 15:37:00,
2013-01-22 10:42:00,18.0,-2.4,29.99,NW,305,4.0,18.0,40,0.00,,,0.00,315.0,meteohub,2013-01-22 15:42:00,
2013-01-22 10:47:00,18.0,-4.0,29.99,WSW,255,12.0,18.0,37,0.00,,,0.00,297.0,meteohub,2013-01-22 15:47:00,
2013-01-22 10:52:00,18.0,-4.0,29.98,West,275,1.0,14.0,37,0.00,,,0.00,155.0,meteohub,2013-01-22 15:52:00,
2013-01-22 10:57:00,18.1,-3.3,29.98,WNW,298,1.0,17.0,38,0.00,,,0.00,288.0,meteohub,2013-01-22 15:57:00,
2013-01-22 11:02:00,18.5,-2.4,29.98,West,262,3.0,17.0,39,0.00,,,0.00,232.0,meteohub,2013-01-22 16:02:00,
2013-01-22 11:07:00,18.3,-3.6,29.99,SSE,148,3.0,12.0,37,0.00,,,0.00,309.0,meteohub,2013-01-22 16:07:00,
2013-01-22 11:12:00,18.5,-4.0,29.99,WNW,284,2.0,13.0,36,0.00,,,0.00,209.0,meteohub,2013-01-22 16:12:00,
2013-01-22 11:17:00,18.7,-3.3,29.99,West,262,7.0,14.0,37,0.00,,,0.00,248.0,meteohub,2013-01-22 16:17:00,
2013-01-22 11:23:00,18.7,-2.7,29.99,North,350,2.0,16.0,38,0.00,,,0.00,320.0,meteohub,2013-01-22 16:23:00,
2013-01-22 11:28:00,18.7,-3.3,29.99,West,269,1.0,16.0,37,0.00,,,0.00,403.0,meteohub,2013-01-22 16:28:00,
2013-01-22 11:33:00,18.7,-2.7,29.99,SW,234,7.0,16.0,38,0.00,,,0.00,443.0,meteohub,2013-01-22 16:33:00,
2013-01-22 11:38:00,18.7,-2.7,29.99,ENE,75,1.0,13.0,38,0.00,,,0.00,439.0,meteohub,2013-01-22 16:38:00,
2013-01-22 11:43:00,18.9,-2.0,29.99,West,261,4.0,13.0,39,0.00,,,0.00,418.0,meteohub,2013-01-22 16:43:00,
2013-01-22 11:49:00,18.9,-2.6,29.98,SW,234,3.0,13.0,38,0.00,,,0.00,120.0,meteohub,2013-01-22 16:49:00,
2013-01-22 11:54:00,18.7,-1.7,29.99,SW,232,4.0,13.0,40,0.00,,,0.00,135.0,meteohub,2013-01-22 16:54:00,
2013-01-22 11:59:00,18.1,-2.7,29.99,WNW,284,1.0,16.0,39,0.00,,,0.00,116.0,meteohub,2013-01-22 16:59:00,
2013-01-22 12:04:00,18.1,-2.7,29.99,NW,319,2.0,16.0,39,0.00,,,0.00,111.0,meteohub,2013-01-22 17:04:00,
2013-01-22 12:09:00,18.1,-1.7,29.99,SW,215,1.0,16.0,41,0.00,,,0.00,98.0,meteohub,2013-01-22 17:09:00,
2013-01-22 12:15:00,18.1,-2.7,29.99,NW,325,3.0,14.0,39,0.00,,,0.00,91.0,meteohub,2013-01-22 17:15:00,
2013-01-22 12:20:00,18.0,-2.4,29.99,West,270,1.0,10.0,40,0.00,,,0.00,77.0,meteohub,2013-01-22 17:20:00,
2013-01-22 12:25:00,18.0,-1.3,29.99,NW,323,2.0,10.0,42,0.00,,,0.00,83.0,meteohub,2013-01-22 17:25:00,
2013-01-22 12:30:00,18.0,-2.4,29.98,WNW,285,1.0,12.0,40,0.00,,,0.00,74.0,meteohub,2013-01-22 17:30:00,
2013-01-22 12:36:00,17.8,-2.0,29.98,WSW,246,6.0,12.0,41,0.00,,,0.00,88.0,meteohub,2013-01-22 17:36:00,
2013-01-22 12:41:00,18.0,-2.4,29.98,South,183,6.0,12.0,40,0.00,,,0.00,311.0,meteohub,2013-01-22 17:41:00,
2013-01-22 12:46:00,18.3,-2.6,29.98,East,95,3.0,12.0,39,0.00,,,0.00,65.0,meteohub,2013-01-22 17:46:00,
2013-01-22 12:52:00,18.5,-1.3,29.98,SW,229,1.0,11.0,41,0.00,,,0.00,95.0,meteohub,2013-01-22 17:52:00,
2013-01-22 12:57:00,18.9,-1.5,29.98,West,281,1.0,12.0,40,0.00,,,0.00,123.0,meteohub,2013-01-22 17:57:00,
2013-01-22 13:02:00,18.9,-2.6,29.99,SW,215,11.0,12.0,38,0.00,,,0.00,93.0,meteohub,2013-01-22 18:02:00,
2013-01-22 13:07:00,18.7,-3.3,29.98,WSW,248,4.0,15.0,37,0.00,,,0.00,111.0,meteohub,2013-01-22 18:07:00,
2013-01-22 13:12:00,18.9,-2.6,29.99,West,260,4.0,15.0,38,0.00,,,0.00,100.0,meteohub,2013-01-22 18:12:00,
2013-01-22 13:17:00,18.9,-2.0,29.99,West,265,1.0,15.0,39,0.00,,,0.00,90.0,meteohub,2013-01-22 18:17:00,
2013-01-22 13:22:00,19.0,-2.4,29.99,SW,223,1.0,10.0,38,0.00,,,0.00,197.0,meteohub,2013-01-22 18:22:00,
2013-01-22 13:27:00,19.4,-2.6,29.99,WSW,252,2.0,10.0,37,0.00,,,0.00,167.0,meteohub,2013-01-22 18:27:00,
2013-01-22 13:33:00,19.8,-1.7,29.99,NW,310,1.0,10.0,38,0.00,,,0.00,163.0,meteohub,2013-01-22 18:33:00,
2013-01-22 13:38:00,19.9,-2.7,29.99,West,274,1.0,10.0,36,0.00,,,0.00,142.0,meteohub,2013-01-22 18:38:00,
2013-01-22 13:43:00,19.8,-2.4,29.98,SW,232,3.0,10.0,37,0.00,,,0.00,134.0,meteohub,2013-01-22 18:43:00,
2013-01-22 13:48:00,19.8,-1.7,29.98,WNW,284,1.0,10.0,38,0.00,,,0.00,72.0,meteohub,2013-01-22 18:48:00,
2013-01-22 13:54:00,19.8,-2.4,29.98,NW,321,8.0,11.0,37,0.00,,,0.00,281.0,meteohub,2013-01-22 18:54:00,
2013-01-22 13:59:00,19.8,-2.4,29.99,West,275,3.0,11.0,37,0.00,,,0.00,197.0,meteohub,2013-01-22 18:59:00,
2013-01-22 14:04:00,19.6,-3.6,29.99,SW,223,5.0,13.0,35,0.00,,,0.00,262.0,meteohub,2013-01-22 19:04:00,
2013-01-22 14:09:00,19.6,-2.6,29.99,NW,305,0.0,13.0,37,0.00,,,0.00,216.0,meteohub,2013-01-22 19:09:00,
2013-01-22 14:14:00,19.6,-3.1,29.99,ESE,115,2.0,13.0,36,0.00,,,0.00,229.0,meteohub,2013-01-22 19:14:00,
2013-01-22 14:20:00,19.6,-2.6,29.99,WSW,256,8.0,13.0,37,0.00,,,0.00,285.0,meteohub,2013-01-22 19:20:00,
2013-01-22 14:25:00,19.4,-2.0,29.99,SSW,198,7.0,20.0,38,0.00,,,0.00,295.0,meteohub,2013-01-22 19:25:00,
2013-01-22 14:30:00,19.6,-2.6,29.99,South,169,6.0,20.0,37,0.00,,,0.00,183.0,meteohub,2013-01-22 19:30:00,
2013-01-22 14:35:00,19.4,-3.8,30.00,ENE,76,3.0,20.0,35,0.00,,,0.00,216.0,meteohub,2013-01-22 19:35:00,
2013-01-22 14:40:00,19.4,-4.4,29.99,SW,223,2.0,14.0,34,0.00,,,0.00,114.0,meteohub,2013-01-22 19:40:00,
2013-01-22 14:45:00,19.2,-4.5,30.00,WSW,238,9.0,16.0,34,0.00,,,0.00,137.0,meteohub,2013-01-22 19:45:00,
2013-01-22 14:51:00,19.0,-4.2,30.00,SW,232,1.0,16.0,35,0.00,,,0.00,181.0,meteohub,2013-01-22 19:51:00,
2013-01-22 14:56:00,19.0,-3.5,30.00,SW,222,1.0,16.0,36,0.00,,,0.00,234.0,meteohub,2013-01-22 19:56:00,
2013-01-22 15:01:00,19.0,-3.5,30.01,WSW,257,3.0,13.0,36,0.00,,,0.00,209.0,meteohub,2013-01-22 20:01:00,
2013-01-22 15:07:00,18.9,-2.6,30.01,North,11,1.0,17.0,38,0.00,,,0.00,123.0,meteohub,2013-01-22 20:07:00,
2013-01-22 15:12:00,18.9,-1.5,30.01,NNW,330,1.0,17.0,40,0.00,,,0.00,47.0,meteohub,2013-01-22 20:12:00,
2013-01-22 15:17:00,18.9,-2.0,30.01,SW,231,3.0,17.0,39,0.00,,,0.00,51.0,meteohub,2013-01-22 20:17:00,
2013-01-22 15:22:00,18.9,-2.6,30.01,WSW,258,1.0,11.0,38,0.00,,,0.00,42.0,meteohub,2013-01-22 20:22:00,
2013-01-22 15:27:00,18.7,-1.7,30.01,SW,234,7.0,11.0,40,0.00,,,0.00,33.0,meteohub,2013-01-22 20:27:00,
2013-01-22 15:33:00,18.3,-2.6,30.01,West,268,7.0,11.0,39,0.00,,,0.00,26.0,meteohub,2013-01-22 20:33:00,
2013-01-22 15:38:00,18.1,-1.7,30.01,WNW,289,2.0,14.0,41,0.00,,,0.00,21.0,meteohub,2013-01-22 20:38:00,
2013-01-22 15:43:00,18.0,-1.8,30.02,North,0,0.0,14.0,41,0.00,,,0.00,21.0,meteohub,2013-01-22 20:43:00,
2013-01-22 15:48:00,17.8,-0.9,30.02,West,279,3.0,14.0,43,0.00,,,0.00,19.0,meteohub,2013-01-22 20:48:00,
2013-01-22 15:53:00,17.8,-2.9,30.04,WSW,244,5.0,9.0,39,0.00,,,0.00,19.0,meteohub,2013-01-22 20:53:00,
2013-01-22 15:58:00,17.4,-2.2,30.04,WSW,245,3.0,9.0,41,0.00,,,0.00,18.0,meteohub,2013-01-22 20:58:00,
2013-01-22 16:04:00,17.4,-1.8,30.04,SW,236,2.0,9.0,42,0.00,,,0.00,19.0,meteohub,2013-01-22 21:04:00,
2013-01-22 16:09:00,17.2,0.0,30.04,WNW,288,1.0,12.0,46,0.00,,,0.00,19.0,meteohub,2013-01-22 21:09:00,
2013-01-22 16:14:00,17.1,-0.6,30.04,SSW,200,0.0,12.0,45,0.00,,,0.00,19.0,meteohub,2013-01-22 21:14:00,
2013-01-22 16:19:00,17.1,-0.2,30.05,WNW,285,2.0,12.0,46,0.00,,,0.00,18.0,meteohub,2013-01-22 21:19:00,
2013-01-22 16:24:00,17.1,-0.6,30.06,SSW,213,0.0,4.0,45,0.00,,,0.00,21.0,meteohub,2013-01-22 21:24:00,
2013-01-22 16:30:00,17.1,0.7,30.06,NW,308,1.0,3.0,48,0.00,,,0.00,21.0,meteohub,2013-01-22 21:30:00,
2013-01-22 16:35:00,17.1,-0.6,30.06,NW,310,2.0,6.0,45,0.00,,,0.00,18.0,meteohub,2013-01-22 21:35:00,
2013-01-22 16:36:00,17.1,-0.2,30.06,NNE,32,0.0,6.0,46,0.00,,,0.00,18.0,meteohub,2013-01-22 21:36:00,
2013-01-22 16:41:00,17.1,0.3,30.06,WSW,256,1.0,6.0,47,0.00,,,0.00,12.0,meteohub,2013-01-22 21:41:00,
2013-01-22 16:46:00,16.9,-1.8,30.06,WSW,251,3.0,9.0,43,0.00,,,0.00,7.0,meteohub,2013-01-22 21:46:00,
2013-01-22 16:51:00,16.7,1.8,30.07,SW,233,0.0,9.0,51,0.00,,,0.00,5.0,meteohub,2013-01-22 21:51:00,
2013-01-22 16:56:00,16.3,1.8,30.07,South,173,0.0,14.0,52,0.00,,,0.00,0.0,meteohub,2013-01-22 21:56:00,
2013-01-22 17:02:00,16.2,0.9,30.08,SW,229,2.0,14.0,50,0.00,,,0.00,0.0,meteohub,2013-01-22 22:02:00,
2013-01-22 17:07:00,16.2,0.9,30.08,SW,236,0.0,8.0,50,0.00,,,0.00,0.0,meteohub,2013-01-22 22:07:00,
2013-01-22 17:12:00,16.2,0.9,30.08,NNW,342,0.0,8.0,50,0.00,,,0.00,0.0,meteohub,2013-01-22 22:12:00,
2013-01-22 17:18:00,16.0,1.4,30.09,NNW,342,0.0,8.0,52,0.00,,,0.00,0.0,meteohub,2013-01-22 22:18:00,
2013-01-22 17:23:00,15.8,1.2,30.09,SSW,206,0.0,2.0,52,0.00,,,0.00,0.0,meteohub,2013-01-22 22:23:00,
2013-01-22 17:28:00,15.6,-0.6,30.09,SSW,207,0.0,1.0,48,0.00,,,0.00,0.0,meteohub,2013-01-22 22:28:00,
2013-01-22 17:34:00,15.8,-0.4,30.09,SSW,207,1.0,1.0,48,0.00,,,0.00,0.0,meteohub,2013-01-22 22:34:00,
2013-01-22 17:39:00,15.8,-0.4,30.09,WSW,257,0.0,2.0,48,0.00,,,0.00,0.0,meteohub,2013-01-22 22:39:00,
2013-01-22 17:44:00,15.8,0.0,30.10,SSW,200,0.0,3.0,49,0.00,,,0.00,0.0,meteohub,2013-01-22 22:44:00,
2013-01-22 17:49:00,15.6,-0.6,30.10,SW,236,1.0,5.0,48,0.00,,,0.00,0.0,meteohub,2013-01-22 22:49:00,
2013-01-22 17:54:00,15.6,-0.9,30.10,WSW,256,4.0,5.0,47,0.00,,,0.00,0.0,meteohub,2013-01-22 22:54:00,
2013-01-22 17:59:00,15.6,-0.9,30.11,WNW,300,1.0,6.0,47,0.00,,,0.00,0.0,meteohub,2013-01-22 22:59:00,
2013-01-22 18:04:00,15.4,-0.4,30.11,SSW,196,0.0,6.0,49,0.00,,,0.00,0.0,meteohub,2013-01-22 23:04:00,
2013-01-22 18:09:00,15.4,-1.1,30.11,WSW,238,6.0,6.0,47,0.00,,,0.00,0.0,meteohub,2013-01-22 23:09:00,
2013-01-22 18:15:00,15.3,-1.3,30.11,SSW,202,0.0,5.0,47,0.00,,,0.00,0.0,meteohub,2013-01-22 23:15:00,
2013-01-22 18:20:00,15.3,-0.9,30.12,East,88,0.0,7.0,48,0.00,,,0.00,0.0,meteohub,2013-01-22 23:20:00,
2013-01-22 18:25:00,15.1,-0.2,30.12,East,88,0.0,3.0,50,0.00,,,0.00,0.0,meteohub,2013-01-22 23:25:00,
2013-01-22 18:31:00,14.7,0.0,30.12,East,88,0.0,2.0,51,0.00,,,0.00,0.0,meteohub,2013-01-22 23:31:00,
2013-01-22 18:36:00,14.5,-0.2,30.12,East,81,0.0,2.0,51,0.00,,,0.00,0.0,meteohub,2013-01-22 23:36:00,
2013-01-22 18:41:00,14.4,0.3,30.12,ESE,104,0.0,2.0,53,0.00,,,0.00,0.0,meteohub,2013-01-22 23:41:00,
2013-01-22 18:46:00,14.2,-0.6,30.12,SSE,164,0.0,2.0,51,0.00,,,0.00,0.0,meteohub,2013-01-22 23:46:00,
2013-01-22 18:51:00,14.2,1.0,30.12,ESE,115,1.0,2.0,55,0.00,,,0.00,0.0,meteohub,2013-01-22 23:51:00,
2013-01-22 18:56:00,14.0,0.5,30.13,SW,230,0.0,2.0,54,0.00,,,0.00,0.0,meteohub,2013-01-22 23:56:00,
2013-01-22 19:01:00,13.8,-1.3,30.13,NE,50,1.0,2.0,50,0.00,,,0.00,0.0,meteohub,2013-01-23 00:01:00,
2013-01-22 19:07:00,14.0,-2.0,30.13,NNE,19,0.0,3.0,48,0.00,,,0.00,0.0,meteohub,2013-01-23 00:07:00,
2013-01-22 19:12:00,14.2,-2.4,30.14,NNW,335,0.0,3.0,47,0.00,,,0.00,0.0,meteohub,2013-01-23 00:12:00,
2013-01-22 19:17:00,14.2,-3.8,30.14,WSW,255,0.0,3.0,44,0.00,,,0.00,0.0,meteohub,2013-01-23 00:17:00,
2013-01-22 19:23:00,14.2,-2.4,30.14,WSW,245,0.0,5.0,47,0.00,,,0.00,0.0,meteohub,2013-01-23 00:23:00,
2013-01-22 19:28:00,13.8,-4.0,30.14,SSW,210,0.0,5.0,44,0.00,,,0.00,0.0,meteohub,2013-01-23 00:28:00,
2013-01-22 19:33:00,13.8,-4.0,30.14,WSW,246,2.0,5.0,44,0.00,,,0.00,0.0,meteohub,2013-01-23 00:33:00,
2013-01-22 19:38:00,13.8,-3.1,30.14,NE,38,1.0,9.0,46,0.00,,,0.00,0.0,meteohub,2013-01-23 00:38:00,
2013-01-22 19:44:00,13.8,-3.1,30.14,NE,41,2.0,9.0,46,0.00,,,0.00,0.0,meteohub,2013-01-23 00:44:00,
2013-01-22 19:49:00,13.5,-2.6,30.14,SW,225,1.0,9.0,48,0.00,,,0.00,0.0,meteohub,2013-01-23 00:49:00,
2013-01-22 19:54:00,13.5,-3.1,30.15,WSW,242,0.0,8.0,47,0.00,,,0.00,0.0,meteohub,2013-01-23 00:54:00,
2013-01-22 19:59:00,13.5,-3.5,30.14,WNW,284,0.0,4.0,46,0.00,,,0.00,0.0,meteohub,2013-01-23 00:59:00,
2013-01-22 20:04:00,13.3,-3.1,30.14,South,189,1.0,10.0,47,0.00,,,0.00,0.0,meteohub,2013-01-23 01:04:00,
2013-01-22 20:09:00,13.3,-3.6,30.14,WSW,257,0.0,10.0,46,0.00,,,0.00,0.0,meteohub,2013-01-23 01:09:00,
2013-01-22 20:14:00,13.3,-3.6,30.15,South,184,3.0,5.0,46,0.00,,,0.00,0.0,meteohub,2013-01-23 01:14:00,
2013-01-22 20:20:00,13.1,-4.2,30.15,WNW,295,0.0,6.0,45,0.00,,,0.00,0.0,meteohub,2013-01-23 01:20:00,
2013-01-22 20:25:00,12.9,-4.4,30.15,WSW,250,2.0,9.0,45,0.00,,,0.00,0.0,meteohub,2013-01-23 01:25:00,
2013-01-22 20:30:00,12.9,-4.0,30.15,WNW,301,0.0,14.0,46,0.00,,,0.00,0.0,meteohub,2013-01-23 01:30:00,
2013-01-22 20:35:00,12.7,-3.6,30.15,SSW,207,6.0,14.0,47,0.00,,,0.00,0.0,meteohub,2013-01-23 01:35:00,
2013-01-22 20:41:00,12.7,-2.7,30.15,West,267,2.0,14.0,49,0.00,,,0.00,0.0,meteohub,2013-01-23 01:41:00,
2013-01-22 20:46:00,12.7,-3.3,30.15,SW,234,4.0,10.0,48,0.00,,,0.00,0.0,meteohub,2013-01-23 01:46:00,
2013-01-22 20:51:00,12.6,-2.6,30.15,WSW,252,2.0,10.0,50,0.00,,,0.00,0.0,meteohub,2013-01-23 01:51:00,
2013-01-22 20:56:00,12.6,-2.2,30.15,WSW,237,2.0,8.0,51,0.00,,,0.00,0.0,meteohub,2013-01-23 01:56:00,
2013-01-22 21:01:00,12.4,-2.4,30.15,WSW,246,4.0,8.0,51,0.00,,,0.00,0.0,meteohub,2013-01-23 02:01:00,
2013-01-22 21:07:00,12.4,-3.1,30.15,SW,231,5.0,8.0,49,0.00,,,0.00,0.0,meteohub,2013-01-23 02:07:00,
2013-01-22 21:12:00,12.2,-3.3,30.15,West,263,1.0,11.0,49,0.00,,,0.00,0.0,meteohub,2013-01-23 02:12:00,
2013-01-22 21:17:00,12.2,-3.8,30.15,WNW,282,7.0,11.0,48,0.00,,,0.00,0.0,meteohub,2013-01-23 02:17:00,
2013-01-22 21:22:00,12.0,-4.0,30.15,WSW,248,5.0,11.0,48,0.00,,,0.00,0.0,meteohub,2013-01-23 02:22:00,
2013-01-22 21:27:00,12.0,-4.0,30.16,WSW,251,1.0,11.0,48,0.00,,,0.00,0.0,meteohub,2013-01-23 02:27:00,
2013-01-22 21:32:00,11.8,-3.6,30.16,SW,228,1.0,12.0,49,0.00,,,0.00,0.0,meteohub,2013-01-23 02:32:00,
2013-01-22 21:37:00,11.8,-4.0,30.16,WSW,247,0.0,12.0,48,0.00,,,0.00,0.0,meteohub,2013-01-23 02:37:00,
2013-01-22 21:43:00,11.7,-4.7,30.17,WSW,254,3.0,12.0,47,0.00,,,0.00,0.0,meteohub,2013-01-23 02:43:00,
2013-01-22 21:48:00,11.7,-5.1,30.16,SW,229,4.0,8.0,46,0.00,,,0.00,0.0,meteohub,2013-01-23 02:48:00,
2013-01-22 21:53:00,11.7,-4.2,30.16,WSW,244,3.0,8.0,48,0.00,,,0.00,0.0,meteohub,2013-01-23 02:53:00,
2013-01-22 21:58:00,11.5,-4.4,30.17,West,259,2.0,7.0,48,0.00,,,0.00,0.0,meteohub,2013-01-23 02:58:00,
2013-01-22 22:03:00,11.5,-4.4,30.17,WSW,239,2.0,6.0,48,0.00,,,0.00,0.0,meteohub,2013-01-23 03:03:00,
2013-01-22 22:08:00,11.3,-5.1,30.17,WSW,240,1.0,6.0,47,0.00,,,0.00,0.0,meteohub,2013-01-23 03:08:00,
2013-01-22 22:13:00,11.1,-4.4,30.17,WSW,240,0.0,6.0,49,0.00,,,0.00,0.0,meteohub,2013-01-23 03:13:00,
2013-01-22 22:18:00,10.9,-4.5,30.18,WSW,240,0.0,6.0,49,0.00,,,0.00,0.0,meteohub,2013-01-23 03:18:00,
2013-01-22 22:23:00,10.9,-4.0,30.18,WSW,238,0.0,6.0,50,0.00,,,0.00,0.0,meteohub,2013-01-23 03:23:00,
2013-01-22 22:29:00,10.8,-3.8,30.18,WSW,238,0.0,3.0,51,0.00,,,0.00,0.0,meteohub,2013-01-23 03:29:00,
2013-01-22 22:34:00,10.8,-3.8,30.18,WSW,248,1.0,3.0,51,0.00,,,0.00,0.0,meteohub,2013-01-23 03:34:00,
2013-01-22 22:39:00,10.8,-4.7,30.18,SSW,209,1.0,2.0,49,0.00,,,0.00,0.0,meteohub,2013-01-23 03:39:00,
2013-01-22 22:44:00,10.8,-3.5,30.18,SW,222,0.0,5.0,52,0.00,,,0.00,0.0,meteohub,2013-01-23 03:44:00,
2013-01-22 22:49:00,10.6,-4.4,30.18,SW,233,1.0,5.0,50,0.00,,,0.00,0.0,meteohub,2013-01-23 03:49:00,
2013-01-22 22:54:00,10.8,-4.7,30.18,South,186,0.0,3.0,49,0.00,,,0.00,0.0,meteohub,2013-01-23 03:54:00,
2013-01-22 22:59:00,10.8,-4.2,30.18,SW,226,0.0,3.0,50,0.00,,,0.00,0.0,meteohub,2013-01-23 03:59:00,
2013-01-22 23:05:00,10.6,-4.4,30.18,SSW,192,1.0,3.0,50,0.00,,,0.00,0.0,meteohub,2013-01-23 04:05:00,
2013-01-22 23:10:00,10.6,-4.4,30.18,WSW,244,0.0,2.0,50,0.00,,,0.00,0.0,meteohub,2013-01-23 04:10:00,
2013-01-22 23:15:00,10.6,-3.6,30.18,WSW,244,0.0,5.0,52,0.00,,,0.00,0.0,meteohub,2013-01-23 04:15:00,
2013-01-22 23:20:00,10.4,-3.8,30.18,SW,229,0.0,5.0,52,0.00,,,0.00,0.0,meteohub,2013-01-23 04:20:00,
2013-01-22 23:25:00,10.4,-3.3,30.18,WSW,241,0.0,3.0,53,0.00,,,0.00,0.0,meteohub,2013-01-23 04:25:00,
2013-01-22 23:30:00,10.4,-2.9,30.18,SSW,207,0.0,3.0,54,0.00,,,0.00,0.0,meteohub,2013-01-23 04:30:00,
2013-01-22 23:35:00,10.6,-2.7,30.18,ENE,75,1.0,2.0,54,0.00,,,0.00,0.0,meteohub,2013-01-23 04:35:00,
2013-01-22 23:40:00,10.6,-3.1,30.18,SE,132,0.0,2.0,53,0.00,,,0.00,0.0,meteohub,2013-01-23 04:40:00,
2013-01-22 23:46:00,10.8,-2.2,30.18,SW,221,0.0,4.0,55,0.00,,,0.00,0.0,meteohub,2013-01-23 04:46:00,
2013-01-22 23:52:00,10.8,-2.2,30.18,WSW,237,2.0,4.0,55,0.00,,,0.00,0.0,meteohub,2013-01-23 04:52:00,
2013-01-22 23:57:00,10.8,-2.9,30.18,SSW,198,0.0,4.0,53,0.00,,,0.00,0.0,meteohub,2013-01-23 04:57:00,